createdAt,value
2022-11-21T00:01:43.074Z,5.50
2022-11-21T00:04:11.581Z,5.00
2022-11-21T00:06:41.372Z,5.90
2022-11-21T00:09:09.983Z,6.30
2022-11-21T00:11:40.795Z,5.20
2022-11-21T00:14:09.615Z,5.80
2022-11-21T00:16:38.208Z,5.40
2022-11-21T00:19:07.007Z,5.40
2022-11-21T00:21:35.867Z,5.70
2022-11-21T00:24:06.269Z,6.00
2022-11-21T00:26:34.707Z,5.50
2022-11-21T00:29:03.174Z,5.50
2022-11-21T00:31:31.714Z,5.80
2022-11-21T00:34:00.347Z,5.50
2022-11-21T00:36:28.912Z,6.20
2022-11-21T00:38:57.187Z,6.00
2022-11-21T00:41:27.131Z,6.10
2022-11-21T00:43:55.763Z,6.20
2022-11-21T00:46:25.795Z,5.40
2022-11-21T00:48:54.263Z,6.30
2022-11-21T00:51:24.916Z,5.60
2022-11-21T00:53:53.622Z,6.00
2022-11-21T00:56:22.281Z,5.60
2022-11-21T00:58:52.240Z,5.40
2022-11-21T01:01:23.640Z,6.00
2022-11-21T01:03:52.357Z,5.70
2022-11-21T01:06:20.735Z,6.50
2022-11-21T01:08:49.431Z,5.70
2022-11-21T01:11:20.348Z,5.70
2022-11-21T01:13:50.854Z,5.80
2022-11-21T01:16:22.478Z,6.90
2022-11-21T01:18:51.503Z,6.10
2022-11-21T01:21:22.773Z,5.90
2022-11-21T01:23:52.182Z,6.90
2022-11-21T01:26:22.547Z,5.90
2022-11-21T01:28:51.814Z,6.10
2022-11-21T01:31:24.993Z,7.60
2022-11-21T01:33:54.083Z,5.90
2022-11-21T01:36:24.737Z,5.90
2022-11-21T01:38:59.835Z,5.90
2022-11-21T01:41:33.930Z,5.90
2022-11-21T01:44:04.114Z,5.90
2022-11-21T01:46:35.171Z,6.00
2022-11-21T01:49:07.592Z,6.00
2022-11-21T01:51:43.294Z,6.00
2022-11-21T01:54:18.493Z,6.20
2022-11-21T01:56:51.373Z,6.00
2022-11-21T01:59:28.392Z,6.30
2022-11-21T02:02:01.367Z,6.00
2022-11-21T02:04:33.289Z,6.30
2022-11-21T02:07:08.193Z,5.90
2022-11-21T02:09:40.591Z,6.00
2022-11-21T02:12:13.570Z,5.90
2022-11-21T02:14:44.486Z,6.60
2022-11-21T02:17:14.963Z,5.90
2022-11-21T02:19:52.221Z,6.10
2022-11-21T02:22:30.160Z,5.50
2022-11-21T02:25:08.120Z,5.90
2022-11-21T02:27:37.680Z,6.50
2022-11-21T02:30:08.725Z,5.90
2022-11-21T02:32:39.530Z,5.90
2022-11-21T02:35:09.653Z,6.20
2022-11-21T02:37:40.877Z,5.90
2022-11-21T02:40:18.628Z,6.20
2022-11-21T02:42:58.260Z,8.00
2022-11-21T02:45:32.369Z,6.40
2022-11-21T02:48:04.147Z,6.20
2022-11-21T02:50:37.417Z,5.60
2022-11-21T02:53:08.642Z,5.50
2022-11-21T02:55:41.682Z,5.60
2022-11-21T02:58:15.237Z,5.40
2022-11-21T03:00:46.111Z,5.40
2022-11-21T03:03:17.244Z,5.30
2022-11-21T03:05:46.762Z,5.40
2022-11-21T03:08:16.633Z,5.40
2022-11-21T03:10:49.812Z,5.20
2022-11-21T03:13:19.015Z,5.40
2022-11-21T03:15:48.341Z,5.40
2022-11-21T03:18:17.316Z,5.50
2022-11-21T03:20:46.548Z,4.90
2022-11-21T03:23:18.327Z,5.40
2022-11-21T03:25:49.288Z,5.40
2022-11-21T03:28:18.363Z,5.40
2022-11-21T03:30:48.181Z,5.50
2022-11-21T03:33:17.362Z,5.70
2022-11-21T03:35:49.803Z,5.50
2022-11-21T03:38:19.275Z,5.40
2022-11-21T03:40:55.872Z,5.50
2022-11-21T03:43:24.555Z,5.80
2022-11-21T03:45:53.273Z,6.40
2022-11-21T03:48:21.723Z,6.00
2022-11-21T03:50:50.215Z,6.40
2022-11-21T03:53:19.258Z,6.20
2022-11-21T03:55:49.082Z,5.50
2022-11-21T03:58:17.580Z,5.50
2022-11-21T04:00:49.591Z,5.50
2022-11-21T04:03:18.285Z,5.40
2022-11-21T04:05:47.252Z,5.50
2022-11-21T04:08:15.704Z,4.70
2022-11-21T04:10:50.539Z,6.20
2022-11-21T04:13:19.179Z,6.50
2022-11-21T04:15:47.846Z,5.20
2022-11-21T04:18:16.502Z,6.30
2022-11-21T04:20:45.320Z,5.70
2022-11-21T04:23:15.418Z,6.50
2022-11-21T04:25:44.413Z,5.50
2022-11-21T04:28:15.690Z,6.70
2022-11-21T04:30:44.693Z,5.80
2022-11-21T04:33:17.125Z,5.50
2022-11-21T04:35:46.443Z,7.00
2022-11-21T04:38:15.421Z,6.40
2022-11-21T04:40:45.764Z,6.20
2022-11-21T04:43:15.538Z,6.20
2022-11-21T04:45:44.891Z,5.60
2022-11-21T04:48:13.761Z,5.70
2022-11-21T04:50:42.155Z,5.80
2022-11-21T04:53:45.586Z,5.70
2022-11-21T04:56:29.755Z,5.60
2022-11-21T04:59:07.029Z,5.70
2022-11-21T05:02:04.404Z,6.40
2022-11-21T05:04:48.760Z,5.70
2022-11-21T05:07:23.555Z,5.80
2022-11-21T05:09:58.842Z,5.80
2022-11-21T05:12:47.895Z,6.30
2022-11-21T05:15:32.302Z,5.50
2022-11-21T05:18:00.720Z,5.80
2022-11-21T05:20:29.894Z,5.80
2022-11-21T05:22:59.289Z,5.80
2022-11-21T05:25:27.279Z,5.80
2022-11-21T05:27:57.575Z,5.80
2022-11-21T05:30:27.158Z,5.80
2022-11-21T05:32:55.158Z,5.80
2022-11-21T05:35:23.187Z,5.70
2022-11-21T05:37:57.046Z,5.60
2022-11-21T05:40:25.515Z,5.50
2022-11-21T05:43:11.095Z,5.40
2022-11-21T05:45:40.735Z,5.30
2022-11-21T05:48:08.823Z,5.20
2022-11-21T05:50:37.548Z,5.20
2022-11-21T05:53:05.955Z,5.10
2022-11-21T05:55:36.697Z,5.20
2022-11-21T05:58:04.955Z,5.20
2022-11-21T06:00:33.219Z,5.10
2022-11-21T06:03:20.069Z,5.20
2022-11-21T06:05:48.139Z,5.00
2022-11-21T06:08:16.209Z,5.00
2022-11-21T06:10:44.372Z,4.90
2022-11-21T06:13:22.941Z,4.90
2022-11-21T06:15:53.101Z,4.90
2022-11-21T06:18:22.473Z,5.00
2022-11-21T06:20:50.530Z,4.90
2022-11-21T06:23:18.645Z,4.90
2022-11-21T06:25:46.651Z,4.80
2022-11-21T06:28:14.872Z,4.80
2022-11-21T06:30:42.824Z,4.90
2022-11-21T06:33:10.768Z,4.90
2022-11-21T06:35:48.240Z,5.00
2022-11-21T06:38:18.740Z,5.00
2022-11-21T06:40:46.767Z,5.00
2022-11-21T06:43:14.897Z,5.10
2022-11-21T06:45:43.041Z,5.10
2022-11-21T06:48:10.972Z,5.20
2022-11-21T06:50:40.371Z,5.20
2022-11-21T06:53:08.432Z,5.20
2022-11-21T06:55:36.530Z,5.30
2022-11-21T06:58:04.590Z,5.40
2022-11-21T07:00:33.074Z,5.30
2022-11-21T07:03:03.399Z,5.40
2022-11-21T07:05:34.657Z,5.40
2022-11-21T07:08:09.129Z,5.50
2022-11-21T07:10:57.243Z,5.50
2022-11-21T07:13:29.411Z,5.60
2022-11-21T07:16:03.061Z,5.60
2022-11-21T07:18:31.202Z,5.70
2022-11-21T07:21:00.281Z,5.80
2022-11-21T07:23:30.805Z,5.80
2022-11-21T07:26:43.714Z,5.90
2022-11-21T07:29:11.740Z,6.10
2022-11-21T07:31:39.854Z,6.20
2022-11-21T07:34:07.834Z,6.20
2022-11-21T07:36:36.214Z,6.30
2022-11-21T07:39:06.501Z,6.30
2022-11-21T07:41:35.277Z,6.40
2022-11-21T07:44:03.433Z,6.40
2022-11-21T07:46:31.382Z,6.50
2022-11-21T07:49:03.039Z,6.50
2022-11-21T07:51:31.491Z,6.50
2022-11-21T07:53:59.403Z,6.50
2022-11-21T07:56:28.793Z,6.60
2022-11-21T07:58:59.924Z,6.80
2022-11-21T08:01:28.065Z,7.10
2022-11-21T08:03:56.020Z,7.40
2022-11-21T08:06:23.948Z,7.50
2022-11-21T08:08:53.991Z,7.40
2022-11-21T08:11:29.942Z,7.30
2022-11-21T08:13:59.623Z,7.30
2022-11-21T08:16:30.597Z,7.40
2022-11-21T08:19:11.546Z,7.50
2022-11-21T08:21:39.625Z,7.60
2022-11-21T08:24:13.519Z,7.40
2022-11-21T08:26:41.852Z,7.40
2022-11-21T08:29:11.815Z,7.30
2022-11-21T08:31:40.526Z,7.20
2022-11-21T08:34:14.108Z,7.20
2022-11-21T08:36:42.577Z,7.10
2022-11-21T08:39:10.742Z,7.40
2022-11-21T08:41:56.291Z,8.60
2022-11-21T08:44:25.692Z,9.90
2022-11-21T08:46:53.688Z,11.30
2022-11-21T08:49:21.726Z,11.80
2022-11-21T08:51:50.490Z,12.50
2022-11-21T08:54:18.930Z,13.40
2022-11-21T08:56:47.172Z,14.10
2022-11-21T08:59:15.564Z,14.60
2022-11-21T09:01:45.413Z,15.10
2022-11-21T09:04:13.764Z,15.20
2022-11-21T09:06:42.039Z,15.30
2022-11-21T09:09:10.095Z,15.50
2022-11-21T09:11:38.399Z,15.60
2022-11-21T09:14:24.229Z,15.70
2022-11-21T09:17:11.424Z,15.90
2022-11-21T09:19:39.393Z,15.60
2022-11-21T09:22:07.368Z,14.50
2022-11-21T09:24:35.457Z,14.20
2022-11-21T09:27:05.145Z,14.50
2022-11-21T09:29:33.324Z,14.80
2022-11-21T09:32:02.811Z,15.00
2022-11-21T09:34:31.696Z,15.50
2022-11-21T09:37:00.175Z,15.90
2022-11-21T09:39:33.312Z,16.00
2022-11-21T09:42:27.893Z,15.60
2022-11-21T09:45:10.602Z,15.50
2022-11-21T09:47:44.254Z,15.80
2022-11-21T09:50:26.885Z,16.10
2022-11-21T09:52:59.916Z,16.00
2022-11-21T09:55:33.852Z,15.20
2022-11-21T09:58:05.249Z,14.60
2022-11-21T10:00:34.533Z,14.10
2022-11-21T10:03:05.948Z,13.60
2022-11-21T10:05:41.871Z,13.40
2022-11-21T10:08:22.392Z,13.50
2022-11-21T10:10:56.945Z,13.60
2022-11-21T10:13:37.449Z,13.40
2022-11-21T10:16:14.872Z,13.00
2022-11-21T10:19:11.122Z,12.80
2022-11-21T10:22:01.957Z,13.00
2022-11-21T10:24:41.835Z,13.50
2022-11-21T10:27:17.123Z,13.30
2022-11-21T10:29:53.186Z,12.70
2022-11-21T10:32:25.022Z,12.10
2022-11-21T10:34:59.335Z,12.00
2022-11-21T10:37:33.797Z,11.50
2022-11-21T10:40:15.860Z,11.20
2022-11-21T10:42:51.213Z,11.00
2022-11-21T10:45:19.423Z,11.00
2022-11-21T10:47:49.393Z,11.00
2022-11-21T10:50:29.949Z,10.90
2022-11-21T10:53:26.136Z,10.90
2022-11-21T10:56:05.835Z,10.80
2022-11-21T10:58:42.760Z,10.80
2022-11-21T11:01:25.120Z,10.70
2022-11-21T11:04:30.988Z,10.60
2022-11-21T11:07:22.670Z,10.50
2022-11-21T11:09:52.481Z,10.30
2022-11-21T11:12:45.326Z,10.20
2022-11-21T11:15:20.701Z,10.00
2022-11-21T11:17:53.262Z,10.10
2022-11-21T11:20:34.875Z,10.30
2022-11-21T11:23:17.495Z,10.40
2022-11-21T11:25:48.348Z,10.40
2022-11-21T11:28:16.440Z,10.40
2022-11-21T11:30:44.604Z,10.20
2022-11-21T11:33:40.810Z,10.00
2022-11-21T11:36:15.562Z,9.90
2022-11-21T11:38:54.796Z,10.10
2022-11-21T11:42:16.753Z,10.30
2022-11-21T11:45:17.630Z,10.20
2022-11-21T11:47:54.817Z,10.20
2022-11-21T11:50:28.626Z,10.10
2022-11-21T11:53:05.516Z,10.00
2022-11-21T11:55:41.551Z,10.00
2022-11-21T11:58:17.906Z,10.00
2022-11-21T12:00:51.266Z,9.90
2022-11-21T12:03:22.833Z,9.90
2022-11-21T12:06:03.562Z,10.10
2022-11-21T12:08:43.152Z,10.30
2022-11-21T12:11:41.237Z,10.30
2022-11-21T12:14:39.783Z,10.20
2022-11-21T12:17:12.141Z,10.20
2022-11-21T12:19:41.214Z,10.10
2022-11-21T12:22:11.901Z,10.20
2022-11-21T12:24:43.203Z,10.30
2022-11-21T12:27:32.176Z,10.20
2022-11-21T12:30:28.621Z,10.10
2022-11-21T12:33:08.155Z,9.90
2022-11-21T12:36:17.366Z,9.80
2022-11-21T12:39:04.685Z,9.80
2022-11-21T12:41:56.466Z,9.80
2022-11-21T12:44:39.838Z,9.70
2022-11-21T12:47:21.594Z,9.60
2022-11-21T12:50:11.653Z,9.50
2022-11-21T12:53:00.197Z,9.60
2022-11-21T12:55:35.952Z,9.70
2022-11-21T12:58:14.543Z,9.90
2022-11-21T13:01:10.494Z,10.10
2022-11-21T13:03:47.995Z,10.30
2022-11-21T13:06:20.406Z,10.30
2022-11-21T13:08:51.940Z,10.20
2022-11-21T13:11:56.476Z,10.10
2022-11-21T13:14:34.598Z,10.00
2022-11-21T13:17:21.970Z,9.80
2022-11-21T13:19:56.269Z,9.60
2022-11-21T13:22:50.311Z,9.50
2022-11-21T13:25:39.432Z,9.50
2022-11-21T13:28:33.493Z,9.60
2022-11-21T13:31:49.301Z,9.80
2022-11-21T13:34:40.824Z,10.20
2022-11-21T13:37:10.963Z,10.50
2022-11-21T13:39:40.220Z,10.70
2022-11-21T13:42:36.844Z,10.80
2022-11-21T13:45:38.407Z,10.70
2022-11-21T13:48:24.423Z,10.50
2022-11-21T13:51:28.820Z,10.20
2022-11-21T13:54:31.536Z,10.10
2022-11-21T13:57:13.710Z,9.80
2022-11-21T14:00:24.699Z,9.50
2022-11-21T14:03:21.994Z,9.20
2022-11-21T14:06:07.041Z,9.10
2022-11-21T14:08:37.199Z,9.00
2022-11-21T14:11:23.643Z,9.00
2022-11-21T14:13:51.854Z,8.90
2022-11-21T14:16:30.691Z,8.80
2022-11-21T14:19:08.805Z,8.80
2022-11-21T14:21:50.622Z,8.80
2022-11-21T14:24:21.377Z,8.70
2022-11-21T14:26:56.811Z,8.70
2022-11-21T14:32:28.110Z,8.70
2022-11-21T14:35:30.641Z,8.60
2022-11-21T14:37:59.555Z,8.60
2022-11-21T14:40:39.038Z,8.50
2022-11-21T14:43:24.752Z,8.50
2022-11-21T14:45:54.000Z,8.40
2022-11-21T14:49:28.809Z,8.30
2022-11-21T14:52:20.840Z,8.30
2022-11-21T14:58:17.477Z,8.20
2022-11-21T15:01:03.484Z,8.10
2022-11-21T15:03:31.702Z,7.90
2022-11-21T15:06:05.250Z,7.90
2022-11-21T15:09:52.868Z,7.90
2022-11-21T15:11:26.185Z,7.70
2022-11-21T15:14:17.131Z,7.60
2022-11-21T15:16:55.684Z,7.50
2022-11-21T15:19:25.246Z,7.50
2022-11-21T15:21:57.945Z,7.40
2022-11-21T15:24:42.114Z,7.50
2022-11-21T15:27:33.497Z,7.30
2022-11-21T15:30:24.928Z,7.40
2022-11-21T15:33:13.351Z,7.20
2022-11-21T15:35:48.327Z,7.10
2022-11-21T15:38:24.045Z,7.10
2022-11-21T15:41:04.156Z,7.20
2022-11-21T15:43:37.689Z,7.10
2022-11-21T15:46:15.717Z,7.00
2022-11-21T15:48:47.029Z,7.00
2022-11-21T15:51:15.783Z,6.90
2022-11-21T15:53:44.227Z,6.90
2022-11-21T15:56:21.331Z,7.00
2022-11-21T15:58:51.329Z,6.90
2022-11-21T16:01:22.197Z,6.90
2022-11-21T16:03:51.503Z,6.80
2022-11-21T16:06:21.165Z,6.80
2022-11-21T16:08:49.245Z,6.80
2022-11-21T16:11:24.353Z,6.80
2022-11-21T16:13:53.668Z,6.90
2022-11-21T16:16:25.629Z,6.90
2022-11-21T16:18:54.298Z,6.80
2022-11-21T16:21:22.526Z,6.90
2022-11-21T16:23:52.148Z,6.80
2022-11-21T16:26:20.973Z,6.80
2022-11-21T16:28:50.222Z,6.80
2022-11-21T16:31:25.535Z,6.80
2022-11-21T16:33:53.948Z,6.80
2022-11-21T16:36:24.897Z,6.80
2022-11-21T16:38:53.845Z,6.60
2022-11-21T16:41:26.671Z,6.60
2022-11-21T16:43:56.290Z,6.60
2022-11-21T16:46:26.778Z,6.60
2022-11-21T16:49:01.081Z,6.70
2022-11-21T16:51:29.841Z,6.90
2022-11-21T16:54:02.876Z,7.00
2022-11-21T16:56:34.205Z,6.90
2022-11-21T16:59:02.586Z,6.90
2022-11-21T17:01:32.294Z,7.00
2022-11-21T17:04:01.315Z,6.60
2022-11-21T17:06:32.111Z,6.50
2022-11-21T17:09:01.854Z,6.40
2022-11-21T17:11:32.292Z,6.10
2022-11-21T17:14:04.790Z,6.10
2022-11-21T17:16:35.725Z,6.30
2022-11-21T17:19:05.522Z,5.90
2022-11-21T17:21:34.063Z,6.20
2022-11-21T17:24:02.193Z,5.80
2022-11-21T17:26:30.920Z,5.70
2022-11-21T17:29:01.010Z,5.60
2022-11-21T17:31:29.348Z,5.50
2022-11-21T17:34:00.816Z,5.30
2022-11-21T17:36:30.785Z,5.40
2022-11-21T17:38:59.040Z,5.40
2022-11-21T17:41:27.753Z,5.20
2022-11-21T17:43:57.302Z,5.30
2022-11-21T17:46:26.190Z,5.30
2022-11-21T17:48:58.282Z,5.20
2022-11-21T17:51:30.061Z,5.20
2022-11-21T17:53:59.543Z,5.20
2022-11-21T17:56:29.338Z,5.10
2022-11-21T17:58:57.824Z,5.10
2022-11-21T18:01:26.521Z,5.00
2022-11-21T18:03:56.860Z,5.00
2022-11-21T18:06:27.439Z,5.10
2022-11-21T18:08:57.383Z,5.40
2022-11-21T18:11:28.546Z,5.00
2022-11-21T18:13:56.636Z,5.00
2022-11-21T18:16:27.275Z,4.90
2022-11-21T18:18:55.528Z,4.90
2022-11-21T18:21:25.291Z,5.20
2022-11-21T18:23:56.483Z,5.00
2022-11-21T18:26:27.111Z,5.20
2022-11-21T18:29:20.722Z,5.10
2022-11-21T18:31:46.089Z,4.90
2022-11-21T18:34:14.209Z,4.80
2022-11-21T18:36:42.259Z,4.80
2022-11-21T18:39:15.291Z,4.80
2022-11-21T18:41:45.182Z,4.70
2022-11-21T18:44:20.004Z,4.70
2022-11-21T18:46:49.569Z,4.80
2022-11-21T18:49:18.165Z,4.90
2022-11-21T18:51:46.514Z,4.60
2022-11-21T18:54:16.032Z,4.60
2022-11-21T18:56:44.162Z,4.50
2022-11-21T18:59:12.427Z,4.60
2022-11-21T19:01:40.862Z,4.50
2022-11-21T19:04:09.490Z,4.50
2022-11-21T19:06:37.666Z,4.50
2022-11-21T19:09:05.923Z,4.60
2022-11-21T19:11:35.702Z,5.30
2022-11-21T19:14:04.057Z,5.40
2022-11-21T19:16:34.148Z,5.70
2022-11-21T19:19:32.987Z,4.40
2022-11-21T19:21:51.177Z,4.40
2022-11-21T19:24:19.535Z,4.40
2022-11-21T19:26:50.584Z,4.40
2022-11-21T19:29:19.088Z,4.40
2022-11-21T19:31:47.187Z,4.30
2022-11-21T19:34:15.938Z,4.50
2022-11-21T19:36:44.508Z,4.20
2022-11-21T19:39:12.875Z,4.20
2022-11-21T19:41:41.397Z,4.30
2022-11-21T19:44:11.514Z,4.30
2022-11-21T19:46:41.199Z,4.20
2022-11-21T19:49:09.799Z,4.30
2022-11-21T19:51:39.687Z,4.30
2022-11-21T19:54:12.321Z,4.30
2022-11-21T19:56:40.680Z,4.30
2022-11-21T19:59:12.506Z,4.30
2022-11-21T20:01:41.405Z,4.40
2022-11-21T20:04:09.730Z,4.50
2022-11-21T20:06:40.033Z,4.40
2022-11-21T20:09:10.950Z,4.50
2022-11-21T20:11:41.615Z,4.50
2022-11-21T20:14:10.213Z,4.50
2022-11-21T20:16:41.840Z,4.60
2022-11-21T20:19:12.026Z,4.50
2022-11-21T20:21:40.451Z,4.50
2022-11-21T20:24:09.291Z,4.60
2022-11-21T20:26:37.901Z,4.60
2022-11-21T20:29:06.850Z,4.60
2022-11-21T20:31:37.297Z,4.60
2022-11-21T20:34:08.815Z,4.60
2022-11-21T20:36:37.779Z,4.50
2022-11-21T20:39:07.926Z,4.50
2022-11-21T20:41:37.697Z,4.40
2022-11-21T20:46:55.784Z,4.40
2022-11-21T20:49:25.393Z,4.40
2022-11-21T20:54:41.574Z,4.40
2022-11-21T20:57:14.770Z,4.50
2022-11-21T20:59:43.490Z,5.60
2022-11-21T21:02:13.989Z,4.80
2022-11-21T21:04:44.219Z,4.50
2022-11-21T21:07:12.349Z,5.00
2022-11-21T21:09:40.674Z,4.50
2022-11-21T21:12:09.053Z,4.50
2022-11-21T21:14:37.140Z,4.50
2022-11-21T21:17:05.131Z,4.50
2022-11-21T21:19:33.296Z,4.40
2022-11-21T21:22:04.901Z,4.40
2022-11-21T21:24:33.017Z,4.40
2022-11-21T21:27:01.051Z,4.40
2022-11-21T21:29:29.207Z,4.40
2022-11-21T21:31:57.536Z,4.30
2022-11-21T21:34:25.715Z,4.30
2022-11-21T21:36:53.741Z,4.30
2022-11-21T21:39:23.210Z,4.30
2022-11-21T21:41:51.258Z,4.30
2022-11-21T21:44:19.817Z,4.30
2022-11-21T21:46:48.267Z,4.30
2022-11-21T21:49:16.681Z,4.40
2022-11-21T21:51:45.408Z,4.50
2022-11-21T21:54:18.675Z,4.30
2022-11-21T21:56:48.756Z,4.40
2022-11-21T21:59:19.743Z,4.40
2022-11-21T22:01:49.468Z,4.30
2022-11-21T22:04:18.093Z,4.40
2022-11-21T22:06:46.353Z,4.60
2022-11-21T22:09:15.837Z,4.50
2022-11-21T22:11:44.237Z,4.50
2022-11-21T22:14:15.498Z,4.50
2022-11-21T22:16:44.659Z,4.60
2022-11-21T22:19:12.980Z,4.50
2022-11-21T22:21:41.574Z,4.50
2022-11-21T22:24:29.536Z,4.60
2022-11-21T22:26:57.813Z,4.60
2022-11-21T22:29:27.540Z,4.60
2022-11-21T22:31:59.419Z,4.60
2022-11-21T22:34:28.159Z,4.60
2022-11-21T22:36:56.519Z,4.60
2022-11-21T22:39:24.806Z,4.60
2022-11-21T22:41:58.403Z,4.70
2022-11-21T22:44:29.929Z,4.70
2022-11-21T22:46:58.819Z,4.70
2022-11-21T22:49:27.182Z,4.70
2022-11-21T22:51:55.288Z,4.70
2022-11-21T22:54:23.873Z,4.70
2022-11-21T22:56:52.041Z,4.80
2022-11-21T22:59:20.195Z,4.80
2022-11-21T23:01:50.099Z,4.80
2022-11-21T23:04:18.596Z,4.90
2022-11-21T23:06:47.265Z,4.90
2022-11-21T23:09:16.407Z,4.90
2022-11-21T23:11:44.582Z,4.80
2022-11-21T23:14:13.772Z,4.90
2022-11-21T23:16:41.977Z,4.80
2022-11-21T23:19:11.524Z,4.80
2022-11-21T23:21:39.829Z,4.80
2022-11-21T23:24:08.312Z,4.80
2022-11-21T23:26:36.940Z,4.70
2022-11-21T23:29:08.533Z,4.70
2022-11-21T23:31:37.606Z,4.80
2022-11-21T23:34:06.045Z,4.80
2022-11-21T23:36:35.974Z,4.70
2022-11-21T23:39:04.831Z,4.70
2022-11-21T23:41:33.331Z,4.70
2022-11-21T23:44:01.554Z,4.70
2022-11-21T23:46:30.401Z,4.70
2022-11-21T23:48:58.915Z,4.70
2022-11-21T23:51:30.275Z,4.70
2022-11-21T23:54:00.035Z,4.70
2022-11-21T23:56:28.191Z,4.70
2022-11-21T23:58:58.555Z,4.70
